createdAt,value
2022-12-08T00:01:35.936Z,13.13
2022-12-08T00:04:05.339Z,12.33
2022-12-08T00:06:54.193Z,12.37
2022-12-08T00:09:24.928Z,12.00
2022-12-08T00:11:56.192Z,11.80
2022-12-08T00:14:26.218Z,11.23
2022-12-08T00:16:54.721Z,11.67
2022-12-08T00:19:23.534Z,11.77
2022-12-08T00:21:53.527Z,11.43
2022-12-08T00:24:22.567Z,12.10
2022-12-08T00:26:50.517Z,10.97
2022-12-08T00:29:19.165Z,10.30
2022-12-08T00:31:47.407Z,11.17
2022-12-08T00:34:16.053Z,11.63
2022-12-08T00:36:44.741Z,10.60
2022-12-08T00:39:15.286Z,10.90
2022-12-08T00:42:00.507Z,10.53
2022-12-08T00:44:28.766Z,10.70
2022-12-08T00:46:57.019Z,10.33
2022-12-08T00:49:25.475Z,10.67
2022-12-08T00:51:53.687Z,10.73
2022-12-08T00:54:24.063Z,10.70
2022-12-08T00:56:52.389Z,10.50
2022-12-08T00:59:20.384Z,10.87
2022-12-08T01:01:49.067Z,10.50
2022-12-08T01:04:19.320Z,10.80
2022-12-08T01:06:47.969Z,11.77
2022-12-08T01:09:17.725Z,11.17
2022-12-08T01:11:47.866Z,10.93
2022-12-08T01:14:16.177Z,11.40
2022-12-08T01:16:45.028Z,11.27
2022-12-08T01:19:15.112Z,11.70
2022-12-08T01:21:44.067Z,12.87
2022-12-08T01:24:13.250Z,13.10
2022-12-08T01:26:41.658Z,12.93
2022-12-08T01:29:12.089Z,12.87
2022-12-08T01:31:40.728Z,13.97
2022-12-08T01:34:09.224Z,15.10
2022-12-08T01:36:38.540Z,15.50
2022-12-08T01:39:08.853Z,16.87
2022-12-08T01:41:38.651Z,17.20
2022-12-08T01:44:39.827Z,17.33
2022-12-08T01:47:09.873Z,17.83
2022-12-08T01:49:38.101Z,18.83
2022-12-08T01:52:12.513Z,19.20
2022-12-08T01:54:45.061Z,18.70
2022-12-08T01:57:15.610Z,19.43
2022-12-08T01:59:49.377Z,19.60
2022-12-08T02:02:18.787Z,19.57
2022-12-08T02:04:46.732Z,19.47
2022-12-08T02:07:17.397Z,18.93
2022-12-08T02:09:46.220Z,19.20
2022-12-08T02:12:14.505Z,19.07
2022-12-08T02:14:42.472Z,21.30
2022-12-08T02:17:28.629Z,20.13
2022-12-08T02:20:17.820Z,19.60
2022-12-08T02:22:55.893Z,19.00
2022-12-08T02:25:34.715Z,20.23
2022-12-08T02:28:19.025Z,20.40
2022-12-08T02:30:55.257Z,20.37
2022-12-08T02:34:00.604Z,20.83
2022-12-08T02:36:36.659Z,20.73
2022-12-08T02:39:12.589Z,19.60
2022-12-08T02:41:46.838Z,20.47
2022-12-08T02:44:23.068Z,20.33
2022-12-08T02:46:55.547Z,20.30
2022-12-08T02:49:29.302Z,20.33
2022-12-08T02:52:07.736Z,20.73
2022-12-08T02:54:37.358Z,20.30
2022-12-08T02:57:18.279Z,20.80
2022-12-08T03:00:03.819Z,20.77
2022-12-08T03:02:46.648Z,20.07
2022-12-08T03:05:32.632Z,19.87
2022-12-08T03:08:09.811Z,18.97
2022-12-08T03:10:43.295Z,20.33
2022-12-08T03:13:14.875Z,18.67
2022-12-08T03:15:46.411Z,19.50
2022-12-08T03:18:17.808Z,19.23
2022-12-08T03:20:47.315Z,19.63
2022-12-08T03:23:18.511Z,19.10
2022-12-08T03:25:51.650Z,18.90
2022-12-08T03:28:19.571Z,18.13
2022-12-08T03:30:50.868Z,19.30
2022-12-08T03:33:24.899Z,18.90
2022-12-08T03:35:54.440Z,18.30
2022-12-08T03:38:23.968Z,18.80
2022-12-08T03:41:05.932Z,18.93
2022-12-08T03:43:34.837Z,17.93
2022-12-08T03:46:03.081Z,19.57
2022-12-08T03:48:31.120Z,17.57
2022-12-08T03:50:58.984Z,17.60
2022-12-08T03:53:28.411Z,18.43
2022-12-08T03:55:56.362Z,18.23
2022-12-08T03:58:24.293Z,17.90
2022-12-08T04:00:52.085Z,17.07
2022-12-08T04:03:20.054Z,17.30
2022-12-08T04:05:48.165Z,17.50
2022-12-08T04:08:16.238Z,17.03
2022-12-08T04:10:45.591Z,16.73
2022-12-08T04:13:13.349Z,17.13
2022-12-08T04:15:41.381Z,16.47
2022-12-08T04:18:09.266Z,17.30
2022-12-08T04:20:40.375Z,16.43
2022-12-08T04:23:08.510Z,15.93
2022-12-08T04:25:37.285Z,16.33
2022-12-08T04:28:07.192Z,14.97
2022-12-08T04:30:35.678Z,15.23
2022-12-08T04:33:04.165Z,16.07
2022-12-08T04:35:32.455Z,14.67
2022-12-08T04:38:00.411Z,15.23
2022-12-08T04:40:28.221Z,14.37
2022-12-08T04:42:56.043Z,14.77
2022-12-08T04:45:25.387Z,14.37
2022-12-08T04:47:53.381Z,14.30
2022-12-08T04:50:21.482Z,14.37
2022-12-08T04:52:49.319Z,13.70
2022-12-08T04:55:17.260Z,13.90
2022-12-08T04:57:45.137Z,13.57
2022-12-08T05:00:14.242Z,14.10
2022-12-08T05:02:43.752Z,14.17
2022-12-08T05:05:11.707Z,12.80
2022-12-08T05:07:39.761Z,13.80
2022-12-08T05:10:09.105Z,14.37
2022-12-08T05:12:37.001Z,13.40
2022-12-08T05:15:05.653Z,12.93
2022-12-08T05:17:33.488Z,14.03
2022-12-08T05:20:03.556Z,14.17
2022-12-08T05:22:31.557Z,13.87
2022-12-08T05:24:59.509Z,13.53
2022-12-08T05:27:27.764Z,13.97
2022-12-08T05:29:55.586Z,14.77
2022-12-08T05:32:23.450Z,13.23
2022-12-08T05:34:51.449Z,14.40
2022-12-08T05:37:20.783Z,13.63
2022-12-08T05:39:48.645Z,14.17
2022-12-08T05:42:21.740Z,14.07
2022-12-08T05:44:52.436Z,14.57
2022-12-08T05:47:20.369Z,14.33
2022-12-08T05:49:48.350Z,13.70
2022-12-08T05:52:17.025Z,14.20
2022-12-08T05:54:46.381Z,14.00
2022-12-08T05:57:14.229Z,13.70
2022-12-08T05:59:42.164Z,14.87
2022-12-08T06:02:10.287Z,14.43
2022-12-08T06:04:38.355Z,14.80
2022-12-08T06:07:06.336Z,13.60
2022-12-08T06:09:34.300Z,13.87
2022-12-08T06:12:03.906Z,15.40
2022-12-08T06:14:31.832Z,14.63
2022-12-08T06:16:59.931Z,14.93
2022-12-08T06:19:27.896Z,14.63
2022-12-08T06:21:55.740Z,15.57
2022-12-08T06:24:23.616Z,16.40
2022-12-08T06:26:51.505Z,15.53
2022-12-08T06:29:20.794Z,15.67
2022-12-08T06:31:48.894Z,15.70
2022-12-08T06:34:16.750Z,16.47
2022-12-08T06:36:44.598Z,16.13
2022-12-08T06:39:12.755Z,15.67
2022-12-08T06:41:54.517Z,15.67
2022-12-08T06:44:24.016Z,15.70
2022-12-08T06:46:51.828Z,15.30
2022-12-08T06:49:19.732Z,15.73
2022-12-08T06:51:47.611Z,15.27
2022-12-08T06:54:15.498Z,15.10
2022-12-08T06:56:43.354Z,14.27
2022-12-08T06:59:11.503Z,14.67
2022-12-08T07:01:40.972Z,15.20
2022-12-08T07:04:08.839Z,15.30
2022-12-08T07:06:36.896Z,14.40
2022-12-08T07:09:04.923Z,14.47
2022-12-08T07:11:32.948Z,14.77
2022-12-08T07:14:02.889Z,14.00
2022-12-08T07:16:30.887Z,13.83
2022-12-08T07:19:00.598Z,13.17
2022-12-08T07:21:28.474Z,13.43
2022-12-08T07:23:58.061Z,13.97
2022-12-08T07:26:26.836Z,13.07
2022-12-08T07:28:54.774Z,12.73
2022-12-08T07:31:25.196Z,12.40
2022-12-08T07:33:54.234Z,13.23
2022-12-08T07:36:24.336Z,12.40
2022-12-08T07:38:53.338Z,12.57
2022-12-08T07:41:23.776Z,12.90
2022-12-08T07:43:52.043Z,11.87
2022-12-08T07:46:23.006Z,10.97
2022-12-08T07:48:52.367Z,10.30
2022-12-08T07:51:20.315Z,9.93
2022-12-08T07:53:54.157Z,9.37
2022-12-08T07:56:23.217Z,9.37
2022-12-08T07:58:51.119Z,10.13
2022-12-08T08:01:25.171Z,9.63
2022-12-08T08:03:54.554Z,10.07
2022-12-08T08:06:23.063Z,10.43
2022-12-08T08:08:53.048Z,9.60
2022-12-08T08:11:22.082Z,10.17
2022-12-08T08:13:50.815Z,9.80
2022-12-08T08:16:19.962Z,10.50
2022-12-08T08:18:48.273Z,10.10
2022-12-08T08:21:43.768Z,11.00
2022-12-08T08:24:06.320Z,10.83
2022-12-08T08:26:34.178Z,10.60
2022-12-08T08:29:02.236Z,9.93
2022-12-08T08:31:30.368Z,9.97
2022-12-08T08:34:06.038Z,9.50
2022-12-08T08:36:34.711Z,10.20
2022-12-08T08:39:02.681Z,10.30
2022-12-08T08:41:32.303Z,10.53
2022-12-08T08:44:00.289Z,10.37
2022-12-08T08:46:28.325Z,10.23
2022-12-08T08:48:56.255Z,10.97
2022-12-08T08:51:24.418Z,11.70
2022-12-08T08:53:52.212Z,11.07
2022-12-08T08:56:20.561Z,11.63
2022-12-08T08:58:50.901Z,11.27
2022-12-08T09:01:21.094Z,13.27
2022-12-08T09:03:49.134Z,13.53
2022-12-08T09:06:17.346Z,13.80
2022-12-08T09:08:45.631Z,14.57
2022-12-08T09:11:14.320Z,14.50
2022-12-08T09:13:42.800Z,15.07
2022-12-08T09:16:13.149Z,10.23
2022-12-08T09:18:41.143Z,15.37
2022-12-08T09:21:11.660Z,15.23
2022-12-08T09:23:40.020Z,16.83
2022-12-08T09:26:08.284Z,16.43
2022-12-08T09:28:36.521Z,16.57
2022-12-08T09:31:05.032Z,16.67
2022-12-08T09:33:34.352Z,17.50
2022-12-08T09:36:04.176Z,16.50
2022-12-08T09:38:32.381Z,17.13
2022-12-08T09:41:02.938Z,16.63
2022-12-08T09:43:59.915Z,16.73
2022-12-08T09:46:31.800Z,16.43
2022-12-08T09:49:03.264Z,15.37
2022-12-08T09:51:37.795Z,16.30
2022-12-08T09:54:09.695Z,15.93
2022-12-08T09:56:38.836Z,17.43
2022-12-08T09:59:17.201Z,16.80
2022-12-08T10:01:45.231Z,17.67
2022-12-08T10:04:23.396Z,16.90
2022-12-08T10:07:01.484Z,16.37
2022-12-08T10:09:39.728Z,15.33
2022-12-08T10:12:17.335Z,14.37
2022-12-08T10:14:55.163Z,14.83
2022-12-08T10:17:27.029Z,14.10
2022-12-08T10:20:01.637Z,13.03
2022-12-08T10:22:39.846Z,13.87
2022-12-08T10:25:18.109Z,15.60
2022-12-08T10:27:49.276Z,14.90
2022-12-08T10:30:20.826Z,15.20
2022-12-08T10:32:51.965Z,15.90
2022-12-08T10:35:23.605Z,15.60
2022-12-08T10:37:57.676Z,14.47
2022-12-08T10:40:28.154Z,16.47
2022-12-08T10:42:58.876Z,16.03
2022-12-08T10:45:29.354Z,16.33
2022-12-08T10:48:02.892Z,16.57
2022-12-08T10:50:35.677Z,17.13
2022-12-08T10:53:13.058Z,17.83
2022-12-08T10:55:44.308Z,18.63
2022-12-08T10:58:35.606Z,17.30
2022-12-08T11:01:08.167Z,18.43
2022-12-08T11:03:39.734Z,19.07
2022-12-08T11:06:16.250Z,18.27
2022-12-08T11:08:51.584Z,18.03
2022-12-08T11:11:25.877Z,17.87
2022-12-08T11:13:57.738Z,18.03
2022-12-08T11:16:25.996Z,18.77
2022-12-08T11:18:58.986Z,18.67
2022-12-08T11:21:37.196Z,18.47
2022-12-08T11:24:23.582Z,19.40
2022-12-08T11:26:55.468Z,17.83
2022-12-08T11:29:23.439Z,17.60
2022-12-08T11:31:55.754Z,18.77
2022-12-08T11:34:33.220Z,18.10
2022-12-08T11:37:04.931Z,18.10
2022-12-08T11:39:36.375Z,17.80
2022-12-08T11:42:08.239Z,17.57
2022-12-08T11:44:42.894Z,17.63
2022-12-08T11:47:19.006Z,17.27
2022-12-08T11:49:50.478Z,17.13
2022-12-08T11:52:27.631Z,18.17
2022-12-08T11:55:00.974Z,16.57
2022-12-08T11:57:30.877Z,16.60
2022-12-08T11:59:59.871Z,16.13
2022-12-08T12:02:30.090Z,14.60
2022-12-08T12:05:03.520Z,15.00
2022-12-08T12:07:52.638Z,15.13
2022-12-08T12:10:37.511Z,15.57
2022-12-08T12:13:14.295Z,15.30
2022-12-08T12:16:16.467Z,15.20
2022-12-08T12:18:47.084Z,15.30
2022-12-08T12:21:20.374Z,15.00
2022-12-08T12:23:55.299Z,13.73
2022-12-08T12:26:26.382Z,12.27
2022-12-08T12:28:59.066Z,11.47
2022-12-08T12:31:31.001Z,11.63
2022-12-08T12:34:13.287Z,11.13
2022-12-08T12:36:53.871Z,12.27
2022-12-08T12:39:29.400Z,11.57
2022-12-08T12:41:59.614Z,12.10
2022-12-08T12:44:43.144Z,12.40
2022-12-08T12:47:35.407Z,11.53
2022-12-08T12:50:09.035Z,11.97
2022-12-08T12:52:47.133Z,12.40
2022-12-08T12:55:52.103Z,11.93
2022-12-08T12:58:41.063Z,12.17
2022-12-08T13:01:46.280Z,12.37
2022-12-08T13:04:14.448Z,11.63
2022-12-08T13:06:45.454Z,12.00
2022-12-08T13:09:23.029Z,12.10
2022-12-08T13:11:55.705Z,12.43
2022-12-08T13:14:32.701Z,13.27
2022-12-08T13:17:02.952Z,12.70
2022-12-08T13:19:34.098Z,13.13
2022-12-08T13:22:02.580Z,14.03
2022-12-08T13:24:35.038Z,15.77
2022-12-08T13:27:35.565Z,14.20
2022-12-08T13:30:50.086Z,13.93
2022-12-08T13:33:24.472Z,13.83
2022-12-08T13:36:06.368Z,14.40
2022-12-08T13:38:37.802Z,14.73
2022-12-08T13:41:13.879Z,14.13
2022-12-08T13:44:10.603Z,14.57
2022-12-08T13:56:51.420Z,16.83
2022-12-08T13:58:21.186Z,16.27
2022-12-08T14:01:03.564Z,13.93
2022-12-08T14:03:32.101Z,14.07
2022-12-08T14:06:15.789Z,13.60
2022-12-08T14:09:06.919Z,14.00
2022-12-08T14:11:37.610Z,13.77
2022-12-08T14:14:08.678Z,11.07
2022-12-08T14:16:40.923Z,10.23
2022-12-08T14:19:18.892Z,13.40
2022-12-08T14:21:54.908Z,10.33
2022-12-08T14:24:23.841Z,12.03
2022-12-08T14:26:54.392Z,10.10
2022-12-08T14:29:40.868Z,10.03
2022-12-08T14:32:22.570Z,9.90
2022-12-08T14:34:59.988Z,9.07
2022-12-08T14:37:31.082Z,8.30
2022-12-08T14:40:02.559Z,10.20
2022-12-08T14:42:31.397Z,9.50
2022-12-08T14:45:02.275Z,10.40
2022-12-08T14:47:33.364Z,12.10
2022-12-08T14:50:02.517Z,10.73
2022-12-08T14:52:31.463Z,11.60
2022-12-08T14:55:00.156Z,11.13
2022-12-08T14:57:36.425Z,10.77
2022-12-08T15:00:12.386Z,9.60
2022-12-08T15:02:47.396Z,10.60
2022-12-08T15:05:18.026Z,11.30
2022-12-08T15:07:49.566Z,12.93
2022-12-08T15:10:26.465Z,13.97
2022-12-08T15:12:59.547Z,11.93
2022-12-08T15:15:27.822Z,12.87
2022-12-08T15:18:05.450Z,11.90
2022-12-08T15:20:41.522Z,13.77
2022-12-08T15:23:21.434Z,13.37
2022-12-08T15:25:49.919Z,14.13
2022-12-08T15:28:21.261Z,14.77
2022-12-08T15:30:51.778Z,14.33
2022-12-08T15:33:21.352Z,14.90
2022-12-08T15:35:50.497Z,14.87
2022-12-08T15:38:21.629Z,14.83
2022-12-08T15:40:49.702Z,14.47
2022-12-08T15:43:17.508Z,14.83
2022-12-08T15:45:58.012Z,15.83
2022-12-08T15:48:31.113Z,14.73
2022-12-08T15:50:59.822Z,14.90
2022-12-08T15:53:27.953Z,13.67
2022-12-08T15:58:59.573Z,18.73
2022-12-08T16:01:28.254Z,16.93
2022-12-08T16:09:39.395Z,15.67
2022-12-08T16:12:57.175Z,15.67
2022-12-08T16:15:50.035Z,14.87
2022-12-08T16:18:15.097Z,14.70
2022-12-08T16:21:07.492Z,15.27
2022-12-08T16:23:48.231Z,18.17
2022-12-08T16:29:07.870Z,15.00
2022-12-08T16:31:35.991Z,26.87
2022-12-08T16:34:03.857Z,17.63
2022-12-08T16:36:33.296Z,16.23
2022-12-08T16:39:01.193Z,14.20
2022-12-08T16:41:46.791Z,16.07
2022-12-08T16:44:14.660Z,17.27
2022-12-08T16:46:42.861Z,15.27
2022-12-08T16:49:11.050Z,15.03
2022-12-08T16:51:43.284Z,16.07
2022-12-08T16:54:11.252Z,17.17
2022-12-08T16:56:39.159Z,19.90
2022-12-08T16:59:07.113Z,14.93
2022-12-08T17:01:35.861Z,15.27
2022-12-08T17:06:53.260Z,15.70
2022-12-08T17:09:21.542Z,14.97
2022-12-08T17:11:49.429Z,14.67
2022-12-08T17:14:17.453Z,15.50
2022-12-08T17:16:46.714Z,16.93
2022-12-08T17:19:15.821Z,16.40
2022-12-08T17:21:44.495Z,14.67
2022-12-08T17:24:18.590Z,15.87
2022-12-08T17:26:49.897Z,16.33
2022-12-08T17:29:18.751Z,15.13
2022-12-08T17:31:46.891Z,15.57
2022-12-08T17:34:15.136Z,15.53
2022-12-08T17:36:43.282Z,15.67
2022-12-08T17:39:18.383Z,15.33
2022-12-08T17:41:47.226Z,15.83
2022-12-08T17:44:17.040Z,15.60
2022-12-08T17:46:52.184Z,15.03
2022-12-08T17:49:22.703Z,16.70
2022-12-08T17:51:53.078Z,15.80
2022-12-08T17:54:22.506Z,15.47
2022-12-08T17:56:50.476Z,16.93
2022-12-08T17:59:19.576Z,16.67
2022-12-08T18:01:47.748Z,16.10
2022-12-08T18:04:16.643Z,16.23
2022-12-08T18:06:44.882Z,17.53
2022-12-08T18:09:12.997Z,17.77
2022-12-08T18:11:43.045Z,15.60
2022-12-08T18:14:12.436Z,18.17
2022-12-08T18:16:42.115Z,17.43
2022-12-08T18:19:11.014Z,19.13
2022-12-08T18:21:39.313Z,17.80
2022-12-08T18:24:08.178Z,17.67
2022-12-08T18:26:36.653Z,16.47
2022-12-08T18:29:05.955Z,16.80
2022-12-08T18:31:34.229Z,16.03
2022-12-08T18:34:02.120Z,15.13
2022-12-08T18:36:30.004Z,16.43
2022-12-08T18:38:57.920Z,15.77
2022-12-08T18:41:26.881Z,16.10
2022-12-08T18:43:55.559Z,15.83
2022-12-08T18:46:25.869Z,16.30
2022-12-08T18:48:54.263Z,16.10
2022-12-08T18:51:24.259Z,15.30
2022-12-08T18:53:53.703Z,15.33
2022-12-08T18:56:24.659Z,15.30
2022-12-08T18:58:52.607Z,19.83
2022-12-08T19:01:20.636Z,14.53
2022-12-08T19:04:19.984Z,15.17
2022-12-08T19:06:40.020Z,14.77
2022-12-08T19:09:08.827Z,15.10
2022-12-08T19:11:36.886Z,15.37
2022-12-08T19:14:05.615Z,15.00
2022-12-08T19:16:33.690Z,14.27
2022-12-08T19:19:03.432Z,15.07
2022-12-08T19:21:31.641Z,14.57
2022-12-08T19:24:00.084Z,15.37
2022-12-08T19:26:29.383Z,15.63
2022-12-08T19:28:58.658Z,15.77
2022-12-08T19:31:27.184Z,15.97
2022-12-08T19:33:58.072Z,15.77
2022-12-08T19:36:27.850Z,15.20
2022-12-08T19:39:13.061Z,14.47
2022-12-08T19:42:00.982Z,15.23
2022-12-08T19:44:47.860Z,15.60
2022-12-08T19:47:16.214Z,15.33
2022-12-08T19:49:44.217Z,14.53
2022-12-08T19:52:13.716Z,14.87
2022-12-08T19:54:41.668Z,14.33
2022-12-08T19:57:10.688Z,15.27
2022-12-08T19:59:39.282Z,14.50
2022-12-08T20:02:07.742Z,14.67
2022-12-08T20:04:35.876Z,14.27
2022-12-08T20:07:04.392Z,14.07
2022-12-08T20:09:33.678Z,13.43
2022-12-08T20:12:01.610Z,15.27
2022-12-08T20:14:29.515Z,15.50
2022-12-08T20:16:57.507Z,14.50
2022-12-08T20:19:25.512Z,13.73
2022-12-08T20:21:53.435Z,14.00
2022-12-08T20:24:21.866Z,14.77
2022-12-08T20:26:51.460Z,13.53
2022-12-08T20:29:19.385Z,14.10
2022-12-08T20:31:47.462Z,13.97
2022-12-08T20:34:16.593Z,14.90
2022-12-08T20:36:44.822Z,14.33
2022-12-08T20:39:14.565Z,14.07
2022-12-08T20:41:42.557Z,15.03
2022-12-08T20:44:12.237Z,14.83
2022-12-08T20:46:44.981Z,14.10
2022-12-08T20:49:15.854Z,14.33
2022-12-08T20:51:44.469Z,14.63
2022-12-08T20:54:12.572Z,14.23
2022-12-08T20:56:47.921Z,14.03
2022-12-08T20:59:18.649Z,14.03
2022-12-08T21:01:46.844Z,14.10
2022-12-08T21:04:15.025Z,14.33
2022-12-08T21:06:43.192Z,13.50
2022-12-08T21:09:11.393Z,15.00
2022-12-08T21:11:39.589Z,13.83
2022-12-08T21:14:08.007Z,14.83
2022-12-08T21:16:37.494Z,14.33
2022-12-08T21:19:06.145Z,14.57
2022-12-08T21:21:34.608Z,14.20
2022-12-08T21:24:03.874Z,14.57
2022-12-08T21:26:32.445Z,14.60
2022-12-08T21:29:00.394Z,14.73
2022-12-08T21:31:31.590Z,14.57
2022-12-08T21:34:02.534Z,13.57
2022-12-08T21:36:31.079Z,13.73
2022-12-08T21:39:00.716Z,14.70
2022-12-08T21:41:47.704Z,13.67
2022-12-08T21:44:18.737Z,14.30
2022-12-08T21:46:46.903Z,14.13
2022-12-08T21:49:16.433Z,14.40
2022-12-08T21:51:44.729Z,13.87
2022-12-08T21:54:18.215Z,13.63
2022-12-08T21:56:47.716Z,14.40
2022-12-08T21:59:16.403Z,13.57
2022-12-08T22:01:45.173Z,15.13
2022-12-08T22:04:13.727Z,14.27
2022-12-08T22:06:43.928Z,13.83
2022-12-08T22:09:13.538Z,15.27
2022-12-08T22:11:42.134Z,15.03
2022-12-08T22:14:14.385Z,15.50
2022-12-08T22:16:43.447Z,16.03
2022-12-08T22:19:12.490Z,14.63
2022-12-08T22:21:42.061Z,15.10
2022-12-08T22:24:10.703Z,15.40
2022-12-08T22:26:38.653Z,15.97
2022-12-08T22:29:06.794Z,16.03
2022-12-08T22:31:34.934Z,14.83
2022-12-08T22:34:02.924Z,14.40
2022-12-08T22:36:30.971Z,15.00
2022-12-08T22:39:00.357Z,15.53
2022-12-08T22:41:28.484Z,15.47
2022-12-08T22:43:56.460Z,15.10
2022-12-08T22:46:25.772Z,14.77
2022-12-08T22:48:55.389Z,15.37
2022-12-08T22:51:23.398Z,15.30
2022-12-08T22:53:51.986Z,16.10
2022-12-08T22:56:21.540Z,16.27
2022-12-08T22:58:49.891Z,15.10
2022-12-08T23:01:24.552Z,15.27
2022-12-08T23:03:52.779Z,15.40
2022-12-08T23:06:21.096Z,15.50
2022-12-08T23:08:49.326Z,16.40
2022-12-08T23:11:17.742Z,16.27
2022-12-08T23:13:47.326Z,15.83
2022-12-08T23:16:15.259Z,15.63
2022-12-08T23:18:44.553Z,15.90
2022-12-08T23:21:15.184Z,15.30
2022-12-08T23:23:43.822Z,15.33
2022-12-08T23:26:17.979Z,15.37
2022-12-08T23:28:47.820Z,16.53
2022-12-08T23:31:16.432Z,15.77
2022-12-08T23:33:44.873Z,15.80
2022-12-08T23:36:13.749Z,15.13
2022-12-08T23:38:42.088Z,14.47
2022-12-08T23:41:13.578Z,15.30
2022-12-08T23:43:45.537Z,16.47
2022-12-08T23:46:16.391Z,15.70
2022-12-08T23:48:44.679Z,15.57
2022-12-08T23:51:13.385Z,15.97
2022-12-08T23:53:41.567Z,15.50
2022-12-08T23:56:11.216Z,16.33
2022-12-08T23:58:40.221Z,15.47
